Time;durP1;ratioP1;P1;durP2;ratioP2;P2;SDS_P1;SDS_P2;PMS_P1;PMS_P2;Temp;Humidity;BMP_temperature;BMP_pressure;BME280_temperature;BME280_humidity;BME280_pressure;Samples;Min_cycle;Max_cycle;Signal;HPM_P1;HPM_P2
2023/07/20 00:00:34;;;;;;;5.03;1.80;;;;;;;17.12;100.00;100724.41;5089474;28;20161;-76
2023/07/20 00:03:25;;;;;;;4.47;1.92;;;;;;;17.09;100.00;100725.09;5068202;28;20043;-76
2023/07/20 00:06:10;;;;;;;4.65;1.85;;;;;;;17.08;100.00;100729.06;5084006;28;20182;-76
2023/07/20 00:08:56;;;;;;;5.78;1.83;;;;;;;17.09;100.00;100730.69;5091283;28;20036;-76
2023/07/20 00:11:48;;;;;;;6.53;1.88;;;;;;;17.10;100.00;100728.72;5096982;28;20040;-76
2023/07/20 00:14:34;;;;;;;6.10;1.67;;;;;;;17.07;100.00;100727.38;5075881;28;20044;-76
2023/07/20 00:17:20;;;;;;;5.32;1.90;;;;;;;17.08;100.00;100720.63;5060285;28;20504;-76
2023/07/20 00:20:07;;;;;;;3.20;1.58;;;;;;;17.06;100.00;100719.31;5043136;28;20490;-76
2023/07/20 00:22:54;;;;;;;4.90;1.90;;;;;;;17.07;100.00;100724.59;5082605;28;20067;-76
2023/07/20 00:25:40;;;;;;;5.40;1.75;;;;;;;17.07;100.00;100715.34;5050563;28;20091;-76
2023/07/20 00:28:26;;;;;;;5.72;1.70;;;;;;;17.04;100.00;100716.84;5053891;28;20090;-76
2023/07/20 00:31:12;;;;;;;4.15;2.00;;;;;;;17.03;100.00;100715.19;5055366;28;20096;-76
2023/07/20 00:33:58;;;;;;;6.25;2.15;;;;;;;16.99;100.00;100708.59;5042614;28;20029;-76
2023/07/20 00:36:43;;;;;;;5.07;1.83;;;;;;;16.98;100.00;100706.94;5036276;28;20104;-76
2023/07/20 00:39:29;;;;;;;7.70;2.08;;;;;;;16.96;100.00;100710.06;5036273;28;20484;-76
2023/07/20 00:42:15;;;;;;;4.47;2.22;;;;;;;16.95;100.00;100713.22;5063199;28;20046;-76
2023/07/20 00:45:01;;;;;;;4.38;1.88;;;;;;;16.91;100.00;100706.63;5052537;28;20040;-76
2023/07/20 00:47:47;;;;;;;4.00;1.73;;;;;;;16.89;100.00;100703.34;5058814;28;20376;-76
2023/07/20 00:50:33;;;;;;;3.65;1.75;;;;;;;16.85;100.00;100696.72;5055604;28;20122;-76
2023/07/20 00:53:19;;;;;;;3.75;1.48;;;;;;;16.82;100.00;100697.41;5068080;28;20068;-76
2023/07/20 00:56:05;;;;;;;4.50;1.80;;;;;;;16.82;100.00;100691.78;5053774;28;20036;-76
2023/07/20 00:58:50;;;;;;;4.63;1.90;;;;;;;16.79;100.00;100698.06;5060658;28;20039;-76
2023/07/20 01:01:36;;;;;;;4.72;1.65;;;;;;;16.74;100.00;100694.25;5062273;28;20127;-76
2023/07/20 01:04:22;;;;;;;3.72;1.83;;;;;;;16.71;100.00;100686.47;5074475;28;20110;-76
2023/07/20 01:07:21;;;;;;;4.57;1.88;;;;;;;16.66;100.00;100678.25;5056157;28;20118;-76
2023/07/20 01:10:36;;;;;;;6.65;2.15;;;;;;;16.63;100.00;100672.47;5067856;28;20059;-76
2023/07/20 01:13:21;;;;;;;3.53;1.90;;;;;;;16.62;100.00;100682.03;5065883;28;20126;-76
2023/07/20 01:16:07;;;;;;;6.55;1.98;;;;;;;16.58;100.00;100676.28;5037551;28;20035;-76
2023/07/20 01:18:53;;;;;;;5.88;2.17;;;;;;;16.58;100.00;100667.88;5043216;28;20032;-76
2023/07/20 01:21:54;;;;;;;6.57;2.20;;;;;;;16.54;100.00;100669.66;5029546;28;20468;-76
2023/07/20 01:24:48;;;;;;;3.30;1.90;;;;;;;16.51;100.00;100668.34;5053327;28;20085;-76
2023/07/20 01:27:49;;;;;;;5.57;2.22;;;;;;;16.51;100.00;100673.13;5083957;28;20028;-76
2023/07/20 01:30:41;;;;;;;5.57;2.25;;;;;;;16.49;100.00;100672.63;5067222;28;20032;-76
2023/07/20 01:33:27;;;;;;;5.05;2.15;;;;;;;16.47;100.00;100669.34;5083789;28;20059;-76
2023/07/20 01:36:13;;;;;;;6.45;2.22;;;;;;;16.43;100.00;100666.38;5030217;28;20094;-76
2023/07/20 01:38:58;;;;;;;6.32;2.13;;;;;;;16.42;100.00;100659.13;5038962;28;20032;-76
2023/07/20 01:41:44;;;;;;;5.35;2.13;;;;;;;16.41;100.00;100665.06;5038564;28;20029;-76
2023/07/20 01:44:30;;;;;;;5.93;2.30;;;;;;;16.39;100.00;100651.38;5028913;28;20035;-76
2023/07/20 01:47:16;;;;;;;5.82;2.17;;;;;;;16.35;100.00;100655.97;5050988;28;20169;-76
2023/07/20 01:50:02;;;;;;;5.30;2.20;;;;;;;16.34;100.00;100639.50;5046351;28;20037;-76
2023/07/20 01:52:48;;;;;;;7.53;2.30;;;;;;;16.30;100.00;100639.34;5033905;28;20067;-76
2023/07/20 01:55:33;;;;;;;4.70;2.20;;;;;;;16.28;100.00;100638.84;5054120;28;20020;-76
2023/07/20 01:58:19;;;;;;;4.47;2.13;;;;;;;16.28;100.00;100633.25;5049618;28;20036;-76
2023/07/20 02:01:05;;;;;;;7.40;2.72;;;;;;;16.24;100.00;100635.03;5037042;28;20040;-76
2023/07/20 02:03:51;;;;;;;6.53;2.22;;;;;;;16.22;100.00;100634.56;5073560;28;20042;-76
2023/07/20 02:06:37;;;;;;;7.10;2.67;;;;;;;16.20;100.00;100628.47;5052084;28;20489;-76
2023/07/20 02:09:23;;;;;;;7.07;2.33;;;;;;;16.19;100.00;100624.03;5059260;28;20516;-76
2023/07/20 02:12:09;;;;;;;6.43;2.35;;;;;;;16.15;100.00;100628.63;5039319;28;20470;-76
2023/07/20 02:14:54;;;;;;;5.18;2.08;;;;;;;16.13;100.00;100631.78;5065462;28;20427;-76
2023/07/20 02:17:41;;;;;;;6.30;2.42;;;;;;;16.12;100.00;100637.69;5071494;28;20031;-76
2023/07/20 02:20:27;;;;;;;5.43;2.38;;;;;;;16.09;100.00;100636.38;5061092;28;20062;-76
2023/07/20 02:23:13;;;;;;;3.78;2.17;;;;;;;16.06;100.00;100637.84;5063594;28;20537;-76
2023/07/20 02:25:59;;;;;;;5.40;2.30;;;;;;;16.06;100.00;100634.22;5079868;28;20067;-76
2023/07/20 02:28:44;;;;;;;5.47;2.35;;;;;;;16.03;100.00;100632.09;5094324;28;20032;-76
2023/07/20 02:31:30;;;;;;;5.15;2.42;;;;;;;16.04;100.00;100633.72;5089795;28;20030;-76
2023/07/20 02:34:16;;;;;;;5.95;2.30;;;;;;;16.00;100.00;100632.75;5101731;28;20399;-76
2023/07/20 02:37:02;;;;;;;3.83;1.90;;;;;;;15.96;100.00;100632.53;5113318;28;20453;-76
2023/07/20 02:39:48;;;;;;;5.20;1.98;;;;;;;15.95;100.00;100630.09;5120245;28;20072;-76
2023/07/20 02:42:34;;;;;;;3.67;2.05;;;;;;;15.93;100.00;100626.78;5099813;28;20036;-76
2023/07/20 02:45:20;;;;;;;3.97;2.53;;;;;;;15.91;100.00;100629.06;5080583;28;20483;-76
2023/07/20 02:48:07;;;;;;;6.32;2.33;;;;;;;15.87;100.00;100623.31;5106358;28;20425;-76
2023/07/20 02:50:53;;;;;;;5.30;2.40;;;;;;;15.89;100.00;100620.19;5096568;28;20114;-75
2023/07/20 02:53:39;;;;;;;4.10;2.10;;;;;;;15.82;100.00;100613.13;5108957;28;20065;-76
2023/07/20 02:56:25;;;;;;;5.50;2.10;;;;;;;15.81;100.00;100614.25;5098322;28;20376;-76
2023/07/20 02:59:11;;;;;;;3.47;1.90;;;;;;;15.78;100.00;100617.69;5082171;28;20042;-76
2023/07/20 03:01:57;;;;;;;4.80;2.25;;;;;;;15.77;100.00;100618.88;5077537;28;20495;-76
2023/07/20 03:04:43;;;;;;;4.82;2.30;;;;;;;15.74;100.00;100619.53;5110622;28;20035;-76
2023/07/20 03:07:29;;;;;;;5.07;2.03;;;;;;;15.72;100.00;100623.78;5094187;28;20453;-76
2023/07/20 03:10:15;;;;;;;4.75;2.03;;;;;;;15.70;100.00;100620.50;5104617;28;20038;-76
2023/07/20 03:13:00;;;;;;;4.60;2.10;;;;;;;15.67;100.00;100612.72;5086964;28;20063;-76
2023/07/20 03:15:46;;;;;;;7.47;2.55;;;;;;;15.65;100.00;100621.44;5096937;28;20036;-76
2023/07/20 03:18:32;;;;;;;6.00;2.45;;;;;;;15.62;100.00;100610.88;5107986;28;20516;-76
2023/07/20 03:21:18;;;;;;;5.40;2.33;;;;;;;15.59;100.00;100612.34;5089479;28;20503;-76
2023/07/20 03:24:04;;;;;;;5.57;2.10;;;;;;;15.57;100.00;100614.69;5096547;28;20035;-76
2023/07/20 03:26:50;;;;;;;4.05;2.28;;;;;;;15.56;100.00;100609.38;5099429;28;20039;-76
2023/07/20 03:29:36;;;;;;;5.38;2.13;;;;;;;15.54;100.00;100604.09;5117717;28;20036;-76
2023/07/20 03:32:22;;;;;;;4.18;2.38;;;;;;;15.52;100.00;100605.59;5096466;28;20038;-76
2023/07/20 03:35:08;;;;;;;5.43;2.13;;;;;;;15.48;100.00;100605.41;5097430;28;20024;-76
2023/07/20 03:37:53;;;;;;;4.68;2.42;;;;;;;15.49;100.00;100607.06;5081291;28;20032;-76
2023/07/20 03:40:39;;;;;;;4.45;2.20;;;;;;;15.45;100.00;100605.25;5091610;28;20038;-76
2023/07/20 03:43:26;;;;;;;4.10;2.15;;;;;;;15.43;100.00;100602.75;5083075;28;20036;-76
2023/07/20 03:46:12;;;;;;;4.68;1.95;;;;;;;15.39;100.00;100602.59;5080052;28;20032;-76
2023/07/20 03:48:58;;;;;;;4.65;2.30;;;;;;;15.38;100.00;100602.94;5113561;28;20124;-76
2023/07/20 03:51:44;;;;;;;3.88;2.00;;;;;;;15.37;100.00;100609.66;5097383;28;20431;-76
2023/07/20 03:54:29;;;;;;;3.22;2.17;;;;;;;15.35;100.00;100609.16;5107609;28;20042;-76
2023/07/20 03:57:15;;;;;;;4.53;2.22;;;;;;;15.32;100.00;100607.00;5105058;28;20036;-76
2023/07/20 04:00:01;;;;;;;5.43;2.13;;;;;;;15.30;100.00;100609.31;5107567;28;20097;-76
2023/07/20 04:02:47;;;;;;;3.63;2.10;;;;;;;15.27;100.00;100609.97;5097722;28;20484;-76
2023/07/20 04:05:33;;;;;;;4.20;2.20;;;;;;;15.22;100.00;100612.91;5093659;28;20067;-76
2023/07/20 04:08:19;;;;;;;2.95;2.08;;;;;;;15.21;100.00;100609.28;5076101;28;20495;-76
2023/07/20 04:11:04;;;;;;;3.97;1.88;;;;;;;15.18;100.00;100599.56;5077296;28;20031;-76
2023/07/20 04:13:50;;;;;;;4.40;2.40;;;;;;;15.17;100.00;100609.09;5089369;28;20075;-76
2023/07/20 04:16:37;;;;;;;4.93;2.30;;;;;;;15.21;100.00;100614.88;5090341;28;20030;-76
2023/07/20 04:19:23;;;;;;;6.50;2.20;;;;;;;15.15;100.00;100616.16;5080241;28;20032;-76
2023/07/20 04:22:08;;;;;;;3.92;2.15;;;;;;;15.13;100.00;100615.66;5076039;28;20032;-75
2023/07/20 04:24:54;;;;;;;3.72;2.17;;;;;;;15.11;100.00;100615.16;5065395;28;20027;-76
2023/07/20 04:27:40;;;;;;;2.10;1.77;;;;;;;15.10;100.00;100624.69;5075221;28;20027;-76
2023/07/20 04:30:26;;;;;;;4.35;2.20;;;;;;;15.08;100.00;100613.00;5084474;28;20115;-76
2023/07/20 04:33:12;;;;;;;2.72;2.20;;;;;;;15.06;100.00;100616.13;5079479;28;20063;-76
2023/07/20 04:35:57;;;;;;;4.50;2.35;;;;;;;15.07;100.00;100611.34;5088006;28;20118;-76
2023/07/20 04:38:43;;;;;;;2.50;1.90;;;;;;;15.07;100.00;100614.97;5097919;28;20031;-76
2023/07/20 04:41:29;;;;;;;3.70;1.98;;;;;;;15.05;100.00;100610.84;5106462;28;20040;-76
2023/07/20 04:44:15;;;;;;;3.42;1.85;;;;;;;15.03;100.00;100611.16;5073934;28;20031;-76
2023/07/20 04:47:02;;;;;;;4.18;2.25;;;;;;;15.05;100.00;100611.69;5077599;28;20036;-76
2023/07/20 04:49:48;;;;;;;4.32;2.03;;;;;;;15.04;100.00;100611.97;5079753;28;20115;-75
2023/07/20 04:52:34;;;;;;;3.60;2.45;;;;;;;15.01;100.00;100619.03;5064106;28;20042;-76
2023/07/20 04:55:20;;;;;;;3.90;2.13;;;;;;;15.02;100.00;100619.91;5092621;28;20024;-76
2023/07/20 04:58:06;;;;;;;3.83;2.00;;;;;;;15.00;100.00;100609.00;5117720;28;20036;-76
2023/07/20 05:00:52;;;;;;;3.88;2.03;;;;;;;14.96;100.00;100602.44;5080792;28;20521;-76
2023/07/20 05:03:38;;;;;;;2.95;1.85;;;;;;;14.98;100.00;100592.53;5104615;28;20066;-76
2023/07/20 05:06:23;;;;;;;5.32;2.53;;;;;;;15.00;100.00;100594.22;5117613;28;20130;-76
2023/07/20 05:09:09;;;;;;;4.18;2.10;;;;;;;15.01;100.00;100593.06;5112397;28;20575;-76
2023/07/20 05:11:55;;;;;;;3.78;2.13;;;;;;;15.02;100.00;100594.72;5072564;28;20399;-76
2023/07/20 05:14:42;;;;;;;4.18;1.90;;;;;;;15.10;100.00;100593.91;5099341;28;20510;-76
2023/07/20 05:17:27;;;;;;;4.18;2.30;;;;;;;15.12;100.00;100586.03;5082143;28;20122;-76
2023/07/20 05:20:13;;;;;;;3.78;2.03;;;;;;;15.22;100.00;100591.34;5079763;28;20039;-76
2023/07/20 05:22:59;;;;;;;3.45;1.98;;;;;;;15.30;100.00;100587.75;5117698;28;20487;-76
2023/07/20 05:25:45;;;;;;;4.63;2.30;;;;;;;15.44;100.00;100592.41;5088501;28;20095;-76
2023/07/20 05:28:31;;;;;;;3.17;2.20;;;;;;;15.51;100.00;100595.53;5112651;28;20034;-76
2023/07/20 05:31:17;;;;;;;3.38;2.03;;;;;;;15.59;100.00;100589.13;5103134;28;20039;-76
2023/07/20 05:34:03;;;;;;;2.95;2.00;;;;;;;15.67;100.00;100599.53;5094807;28;20088;-76
2023/07/20 05:36:49;;;;;;;3.03;1.90;;;;;;;15.74;100.00;100597.13;5107658;28;20036;-76
2023/07/20 05:39:35;;;;;;;4.00;1.77;;;;;;;15.78;100.00;100605.69;5105464;28;20122;-76
2023/07/20 05:42:21;;;;;;;2.83;1.92;;;;;;;15.85;100.00;100600.41;5099305;28;20044;-76
2023/07/20 05:45:07;;;;;;;2.40;1.67;;;;;;;15.90;100.00;100599.44;5100407;28;20070;-76
2023/07/20 05:47:53;;;;;;;5.72;1.90;;;;;;;15.94;100.00;100606.03;5083356;28;20032;-76
2023/07/20 05:50:43;;;;;;;4.68;2.17;;;;;;;15.99;100.00;100603.91;5088972;28;20062;-76
2023/07/20 05:53:29;;;;;;;3.13;2.08;;;;;;;16.03;100.00;100601.25;5107682;28;20074;-76
2023/07/20 05:56:15;;;;;;;2.67;1.80;;;;;;;16.08;100.00;100603.91;5091352;28;20043;-76
2023/07/20 05:59:01;;;;;;;3.92;2.22;;;;;;;16.13;100.00;100592.53;5111584;28;20043;-76
2023/07/20 06:01:49;;;;;;;4.25;1.80;;;;;;;16.19;100.00;100599.63;5107835;28;20456;-76
2023/07/20 06:04:35;;;;;;;4.10;1.70;;;;;;;16.27;100.00;100592.38;5088622;28;20043;-76
2023/07/20 06:07:21;;;;;;;3.15;1.80;;;;;;;16.33;100.00;100605.06;5079124;28;20549;-76
2023/07/20 06:10:07;;;;;;;3.63;1.80;;;;;;;16.40;100.00;100596.16;5088771;28;20191;-76
2023/07/20 06:12:53;;;;;;;4.32;2.10;;;;;;;16.44;100.00;100595.16;5080181;28;20103;-76
2023/07/20 06:15:41;;;;;;;4.38;1.77;;;;;;;16.49;100.00;100600.59;5091971;28;20043;-76
2023/07/20 06:18:26;;;;;;;2.28;1.65;;;;;;;16.55;100.00;100592.84;5090574;28;20031;-76
2023/07/20 06:21:12;;;;;;;5.43;2.00;;;;;;;16.62;100.00;100603.53;5088219;28;20032;-76
2023/07/20 06:23:58;;;;;;;4.55;2.15;;;;;;;16.67;100.00;100595.78;5104655;28;20036;-76
2023/07/20 06:26:44;;;;;;;4.03;2.28;;;;;;;16.74;100.00;100590.50;5095457;28;20042;-76
2023/07/20 06:29:30;;;;;;;3.78;1.95;;;;;;;16.81;100.00;100590.00;5073520;28;20126;-76
2023/07/20 06:32:16;;;;;;;4.30;3.40;;;;;;;16.88;100.00;100595.09;5088537;28;20123;-76
2023/07/20 06:35:02;;;;;;;5.05;2.70;;;;;;;16.94;100.00;100588.16;5080587;28;20024;-76
2023/07/20 06:37:47;;;;;;;5.53;2.65;;;;;;;17.02;100.00;100592.91;5088008;28;20123;-76
2023/07/20 06:40:33;;;;;;;4.57;2.47;;;;;;;17.12;100.00;100583.28;5088437;28;20043;-76
2023/07/20 06:43:19;;;;;;;6.72;3.28;;;;;;;17.23;100.00;100592.16;5056568;28;20044;-76
2023/07/20 06:46:05;;;;;;;6.88;2.97;;;;;;;17.31;100.00;100594.09;5060157;28;20043;-76
2023/07/20 06:48:51;;;;;;;5.20;3.38;;;;;;;17.41;100.00;100586.13;5041713;28;20074;-76
2023/07/20 06:51:36;;;;;;;5.07;2.90;;;;;;;17.57;100.00;100585.53;5086981;28;20306;-76
2023/07/20 06:54:22;;;;;;;5.72;3.03;;;;;;;17.72;100.00;100595.34;5092868;28;20031;-76
2023/07/20 06:57:08;;;;;;;5.65;2.90;;;;;;;17.88;100.00;100590.81;5075131;28;20398;-76
2023/07/20 06:59:54;;;;;;;4.68;2.72;;;;;;;18.07;100.00;100593.16;5091818;28;20036;-76
2023/07/20 07:02:40;;;;;;;6.07;2.05;;;;;;;18.27;100.00;100591.50;5092424;28;20102;-76
2023/07/20 07:05:26;;;;;;;3.40;1.67;;;;;;;18.46;100.00;100585.38;5093826;28;20379;-76
2023/07/20 07:08:12;;;;;;;4.88;2.10;;;;;;;18.67;100.00;100574.91;5101936;28;20120;-76
2023/07/20 07:10:58;;;;;;;3.95;2.00;;;;;;;18.91;100.00;100579.78;5080962;28;20039;-76
2023/07/20 07:13:46;;;;;;;3.92;2.20;;;;;;;19.15;100.00;100573.38;5054764;28;20090;-76
2023/07/20 07:16:32;;;;;;;7.30;2.95;;;;;;;19.41;100.00;100570.19;5076755;28;20032;-76
2023/07/20 07:19:18;;;;;;;5.85;2.17;;;;;;;19.68;100.00;100572.69;5091219;28;20476;-76
2023/07/20 07:22:04;;;;;;;5.85;3.22;;;;;;;19.89;100.00;100572.53;5109292;28;20028;-76
2023/07/20 07:24:50;;;;;;;6.22;2.80;;;;;;;20.10;100.00;100564.72;5087826;28;20585;-76
2023/07/20 07:27:36;;;;;;;6.32;2.83;;;;;;;20.28;100.00;100573.69;5094032;28;20028;-76
2023/07/20 07:30:21;;;;;;;5.30;2.50;;;;;;;20.48;100.00;100569.06;5093146;28;20118;-76
2023/07/20 07:33:08;;;;;;;5.70;2.80;;;;;;;20.69;100.00;100566.84;5060726;28;20112;-76
2023/07/20 07:35:54;;;;;;;4.88;2.40;;;;;;;20.89;100.00;100566.94;5062481;28;20031;-77
2023/07/20 07:38:40;;;;;;;4.93;3.10;;;;;;;21.03;100.00;100564.50;5054657;28;20032;-76
2023/07/20 07:41:25;;;;;;;6.95;2.80;;;;;;;21.24;100.00;100569.88;5087214;28;20021;-76
2023/07/20 07:44:11;;;;;;;4.10;2.35;;;;;;;21.45;100.00;100563.97;5087963;28;20039;-76
2023/07/20 07:46:57;;;;;;;5.88;2.85;;;;;;;21.58;100.00;100557.03;5073428;28;20484;-76
2023/07/20 07:49:43;;;;;;;6.93;2.95;;;;;;;21.71;100.00;100559.75;5073544;28;20040;-76
2023/07/20 07:52:29;;;;;;;5.35;2.50;;;;;;;21.83;100.00;100565.25;5063940;28;20039;-76
2023/07/20 07:55:17;;;;;;;4.00;2.13;;;;;;;21.92;100.00;100567.88;5059514;28;20043;-76
2023/07/20 07:58:03;;;;;;;6.03;2.60;;;;;;;22.05;100.00;100564.53;5072154;28;20095;-76
2023/07/20 08:00:49;;;;;;;4.07;2.25;;;;;;;22.14;100.00;100555.84;5036305;28;20028;-76
2023/07/20 08:03:36;;;;;;;4.78;2.65;;;;;;;22.22;100.00;100551.19;5047357;28;20080;-76
2023/07/20 08:06:23;;;;;;;7.75;2.72;;;;;;;22.24;100.00;100548.81;5073526;28;20098;-76
2023/07/20 08:09:09;;;;;;;7.53;2.70;;;;;;;22.21;100.00;100546.72;5063592;28;20051;-76
2023/07/20 08:11:55;;;;;;;4.82;2.50;;;;;;;22.34;100.00;100548.19;5056372;28;20119;-76
2023/07/20 08:14:41;;;;;;;3.78;2.10;;;;;;;22.48;100.00;100547.66;5066978;28;20035;-76
2023/07/20 08:17:27;;;;;;;3.38;1.92;;;;;;;22.52;100.00;100548.56;5064794;28;20021;-76
2023/07/20 08:20:13;;;;;;;5.40;2.13;;;;;;;22.63;100.00;100545.94;5067472;28;20035;-76
2023/07/20 08:22:59;;;;;;;5.57;2.00;;;;;;;22.68;100.00;100551.31;5067846;28;20063;-76
2023/07/20 08:25:45;;;;;;;4.80;2.03;;;;;;;22.72;100.00;100550.16;5107818;28;20031;-76
2023/07/20 08:28:31;;;;;;;4.97;1.98;;;;;;;22.78;100.00;100553.50;5109789;28;20035;-76
2023/07/20 08:31:18;;;;;;;4.88;2.00;;;;;;;22.82;100.00;100550.75;5064883;28;20499;-76
2023/07/20 08:34:03;;;;;;;6.65;2.30;;;;;;;22.88;100.00;100547.22;5092874;28;20039;-75
2023/07/20 08:36:49;;;;;;;5.38;2.17;;;;;;;22.95;100.00;100553.03;5082414;28;20055;-76
2023/07/20 08:39:35;;;;;;;6.35;2.08;;;;;;;23.03;100.00;100550.31;5055083;28;20070;-75
2023/07/20 08:42:21;;;;;;;4.22;2.10;;;;;;;23.18;100.00;100555.88;5083522;28;20036;-76
2023/07/20 08:45:08;;;;;;;3.70;2.10;;;;;;;23.28;100.00;100560.06;5059842;28;20039;-75
2023/07/20 08:47:55;;;;;;;4.30;2.05;;;;;;;23.39;100.00;100557.41;5069460;28;20122;-76
2023/07/20 08:50:41;;;;;;;4.78;1.98;;;;;;;23.51;99.90;100551.53;5084195;28;20040;-75
2023/07/20 08:53:28;;;;;;;4.88;2.03;;;;;;;23.56;98.37;100547.56;5067896;28;20035;-76
2023/07/20 08:56:14;;;;;;;5.93;2.40;;;;;;;23.70;98.77;100544.91;5092672;28;20040;-75
2023/07/20 08:59:00;;;;;;;3.55;1.90;;;;;;;23.92;97.74;100556.59;5049243;28;20050;-76
2023/07/20 09:01:46;;;;;;;4.18;1.90;;;;;;;24.16;96.94;100558.16;5070837;28;20109;-76
2023/07/20 09:04:32;;;;;;;4.45;1.70;;;;;;;24.23;96.60;100550.53;5056060;28;20096;-75
2023/07/20 09:07:18;;;;;;;3.20;1.70;;;;;;;24.31;93.92;100551.44;5049450;28;20051;-75
2023/07/20 09:10:05;;;;;;;5.28;1.90;;;;;;;24.39;92.28;100552.34;5044191;28;20038;-76
2023/07/20 09:12:51;;;;;;;6.22;1.70;;;;;;;24.37;92.43;100558.41;5084803;28;20060;-76
2023/07/20 09:15:37;;;;;;;5.18;2.17;;;;;;;24.39;91.69;100556.00;5053846;28;20409;-76
2023/07/20 09:18:30;;;;;;;4.22;1.60;;;;;;;24.38;91.49;100545.06;5075731;28;20028;-76
2023/07/20 09:21:16;;;;;;;4.53;1.73;;;;;;;24.43;90.61;100551.25;5068402;28;20028;-75
2023/07/20 09:24:02;;;;;;;4.30;1.63;;;;;;;24.39;90.62;100547.50;5068643;28;20027;-76
2023/07/20 09:26:48;;;;;;;5.10;1.90;;;;;;;24.43;91.95;100547.53;5092264;28;20035;-76
2023/07/20 09:29:34;;;;;;;5.85;2.15;;;;;;;24.44;92.09;100546.38;5075077;28;20032;-75
2023/07/20 09:32:20;;;;;;;6.30;1.98;;;;;;;24.38;90.74;100545.06;5088470;28;20089;-75
2023/07/20 09:35:07;;;;;;;3.88;1.60;;;;;;;24.33;91.41;100543.38;5076991;28;20162;-76
2023/07/20 09:38:00;;;;;;;5.47;1.80;;;;;;;24.28;90.67;100540.88;5063803;28;20119;-75
2023/07/20 09:40:47;;;;;;;4.25;1.73;;;;;;;24.25;91.82;100539.63;5074182;28;20114;-76
2023/07/20 09:43:34;;;;;;;4.18;2.13;;;;;;;24.35;91.37;100545.81;5049366;28;20123;-76
2023/07/20 09:46:20;;;;;;;5.95;1.60;;;;;;;24.36;91.45;100538.94;5052850;28;20051;-76
2023/07/20 09:49:08;;;;;;;2.67;1.60;;;;;;;24.35;91.06;100528.78;5065306;28;20032;-76
2023/07/20 09:51:54;;;;;;;3.55;1.50;;;;;;;24.45;89.41;100531.78;5052700;28;20044;-75
2023/07/20 09:54:40;;;;;;;5.20;1.67;;;;;;;24.50;88.09;100524.94;5057728;28;20033;-76
2023/07/20 09:57:26;;;;;;;4.85;1.90;;;;;;;24.50;87.35;100530.63;5071012;28;20027;-76
2023/07/20 10:00:13;;;;;;;3.47;1.77;;;;;;;24.55;85.90;100533.09;5072476;28;20039;-77
2023/07/20 10:02:59;;;;;;;3.97;1.98;;;;;;;24.63;84.92;100529.16;5045606;28;20067;-77
2023/07/20 10:05:56;;;;;;;4.70;1.55;;;;;;;24.79;84.44;100520.34;5077104;28;20130;-77
2023/07/20 10:08:42;;;;;;;3.58;1.38;;;;;;;24.89;82.74;100519.66;5048576;28;20097;-76
2023/07/20 10:11:30;;;;;;;4.50;1.58;;;;;;;25.03;81.46;100521.81;5073747;28;20146;-77
2023/07/20 10:14:18;;;;;;;4.40;1.50;;;;;;;25.23;77.32;100527.28;5060247;28;20043;-77
2023/07/20 10:17:04;;;;;;;5.25;1.65;;;;;;;25.48;75.64;100519.75;5069379;28;20550;-77
2023/07/20 10:19:52;;;;;;;2.75;1.30;;;;;;;25.77;76.93;100517.06;5066819;28;20483;-76
2023/07/20 10:22:41;;;;;;;4.10;1.40;;;;;;;25.92;75.10;100518.81;5060354;28;20614;-77
2023/07/20 10:25:31;;;;;;;2.47;1.65;;;;;;;26.21;73.86;100513.25;5052853;28;20555;-77
2023/07/20 10:28:17;;;;;;;2.63;1.27;;;;;;;26.50;72.84;100509.31;5061990;28;20373;-77
2023/07/20 10:31:04;;;;;;;1.83;1.10;;;;;;;26.72;70.41;100517.91;5048291;28;20556;-77
2023/07/20 10:33:50;;;;;;;2.53;1.20;;;;;;;26.97;68.57;100509.38;5073487;28;20032;-77
2023/07/20 10:36:45;;;;;;;3.03;1.17;;;;;;;27.27;68.09;100508.97;5057992;28;20060;-77
2023/07/20 10:39:31;;;;;;;3.78;1.30;;;;;;;27.56;65.63;100506.09;5065660;28;20063;-77
2023/07/20 10:42:17;;;;;;;2.38;1.10;;;;;;;27.87;64.18;100497.91;5073354;28;20070;-77
2023/07/20 10:45:03;;;;;;;4.03;1.20;;;;;;;27.91;62.32;100499.50;5051261;28;20043;-77
2023/07/20 10:47:49;;;;;;;2.65;1.20;;;;;;;27.88;59.33;100494.63;5045956;28;20032;-77
2023/07/20 10:50:35;;;;;;;3.92;1.15;;;;;;;28.00;56.12;100493.34;5084310;28;20550;-77
2023/07/20 10:53:21;;;;;;;4.65;1.25;;;;;;;28.05;56.91;100490.06;5052134;28;20036;-77
2023/07/20 10:56:08;;;;;;;2.97;1.00;;;;;;;28.20;56.28;100490.84;5068040;28;20023;-77
2023/07/20 10:59:00;;;;;;;1.95;1.08;;;;;;;28.36;55.75;100484.59;5072690;28;20028;-77
2023/07/20 11:01:47;;;;;;;3.35;1.10;;;;;;;28.52;54.92;100482.91;5056627;28;20038;-77
2023/07/20 11:04:40;;;;;;;2.67;1.20;;;;;;;28.71;53.22;100477.88;5070221;28;20032;-77
2023/07/20 11:07:46;;;;;;;;;;;;;;;28.76;53.04;100474.59;5065750;28;20045;-77
2023/07/20 11:10:32;;;;;;;2.63;1.10;;;;;;;28.84;53.07;100475.34;5088249;28;19912;-77
2023/07/20 11:13:19;;;;;;;3.45;1.05;;;;;;;28.81;50.81;100477.00;5070704;28;20032;-77
2023/07/20 11:16:05;;;;;;;2.75;1.20;;;;;;;28.79;51.25;100478.66;5070350;28;20063;-77
2023/07/20 11:18:51;;;;;;;3.83;1.05;;;;;;;28.79;51.50;100468.03;5082895;28;20035;-77
2023/07/20 11:21:38;;;;;;;2.67;0.90;;;;;;;28.82;49.93;100472.09;5065645;28;20035;-77
2023/07/20 11:24:23;;;;;;;2.45;0.93;;;;;;;28.88;48.40;100467.56;5061479;28;20487;-77
2023/07/20 11:27:09;;;;;;;3.58;1.27;;;;;;;29.05;48.75;100458.03;5091289;28;20036;-77
2023/07/20 11:29:56;;;;;;;2.15;1.00;;;;;;;29.17;49.33;100448.94;5080449;28;20032;-77
2023/07/20 11:32:47;;;;;;;2.85;1.10;;;;;;;29.11;49.41;100450.66;5062190;28;20036;-77
2023/07/20 11:35:42;;;;;;;3.30;1.23;;;;;;;29.07;47.53;100449.06;5062385;28;20032;-77
2023/07/20 11:38:28;;;;;;;2.15;1.15;;;;;;;29.14;49.58;100444.09;5057737;28;20086;-77
2023/07/20 11:41:14;;;;;;;4.57;1.27;;;;;;;29.12;49.39;100446.53;5061421;28;20028;-76
2023/07/20 11:44:00;;;;;;;2.05;1.00;;;;;;;29.15;47.38;100437.13;5056986;28;20035;-77
2023/07/20 11:46:46;;;;;;;4.00;1.23;;;;;;;29.06;48.61;100442.53;5074372;28;20035;-77
2023/07/20 11:49:36;;;;;;;1.75;1.25;;;;;;;28.95;48.42;100441.78;5091781;28;20039;-77
2023/07/20 11:52:23;;;;;;;4.05;1.30;;;;;;;28.99;48.11;100433.16;5069500;28;20506;-77
2023/07/20 11:55:08;;;;;;;3.10;1.10;;;;;;;29.04;47.92;100432.75;5083794;28;20404;-77
2023/07/20 11:58:04;;;;;;;1.90;1.10;;;;;;;29.22;47.77;100421.94;5068155;28;20031;-77
2023/07/20 12:00:50;;;;;;;2.22;0.90;;;;;;;29.43;47.40;100420.91;5068103;28;20028;-76
2023/07/20 12:03:36;;;;;;;2.05;0.90;;;;;;;29.40;46.32;100413.16;5061890;28;20399;-77
2023/07/20 12:06:26;;;;;;;2.83;1.00;;;;;;;29.46;45.42;100408.59;5058234;28;20429;-77
2023/07/20 12:09:16;;;;;;;2.60;0.82;;;;;;;29.51;44.39;100408.13;5079325;28;20538;-77
2023/07/20 12:12:09;;;;;;;3.25;0.90;;;;;;;29.46;45.80;100407.78;5071441;28;20507;-76
2023/07/20 12:14:54;;;;;;;4.40;1.10;;;;;;;29.34;45.15;100412.03;5063793;28;20116;-77
2023/07/20 12:17:44;;;;;;;2.10;0.82;;;;;;;29.42;43.51;100413.56;5049886;28;20129;-77
2023/07/20 12:20:37;;;;;;;2.42;0.88;;;;;;;29.39;43.88;100408.66;5059548;28;20032;-77
2023/07/20 12:23:23;;;;;;;1.55;0.70;;;;;;;29.24;44.54;100410.06;5040484;28;20033;-77
2023/07/20 12:26:09;;;;;;;2.92;0.90;;;;;;;29.35;43.80;100405.06;5060802;28;20405;-77
2023/07/20 12:28:56;;;;;;;3.53;0.90;;;;;;;29.43;43.78;100402.94;5023293;28;20041;-77
2023/07/20 12:31:42;;;;;;;3.85;1.10;;;;;;;29.24;44.56;100408.03;5056267;28;20040;-77
2023/07/20 12:34:27;;;;;;;3.13;0.95;;;;;;;29.11;44.54;100410.63;5048554;28;20037;-76
2023/07/20 12:37:13;;;;;;;2.00;0.70;;;;;;;28.94;43.38;100397.25;5062861;28;20226;-77
2023/07/20 12:39:59;;;;;;;1.40;0.75;;;;;;;29.00;43.65;100392.69;5066923;28;20054;-77
2023/07/20 12:42:45;;;;;;;2.25;0.73;;;;;;;29.10;44.41;100380.38;5034493;28;20127;-77
2023/07/20 12:45:30;;;;;;;1.73;0.77;;;;;;;28.95;44.68;100384.63;5047418;28;20087;-77
2023/07/20 12:48:16;;;;;;;1.15;0.80;;;;;;;28.78;43.99;100386.41;5057851;28;20043;-77